Anfutun, China

30°F / -1°C
Clear
Humidity: 93%
Dew Point: 28°F / -2°C
Wind: SE at 2 mph / 4 km/h
Pressure: 29.98 in / 1015 hPa (Steady)
Visibility: -
Clouds:
Yesterday's Maximum: 52°F / 11°C
Yesterday's Minimum: 36°F / 2°C approx.
Yesterday's Heating Degree Days: 21 approx.
Sunrise:4:51 AM CST
Sunset:6:40 PM CST
Moon Rise:12:32 AM CST
Moon Set:10:02 AM CST
Moon Phase Waning Gibbous
NOAA Weather Radio
No local feed.
METAR ZYTX 252000Z 14001MPS CAVOK M01/M02 Q1015 NOSIG
As of: 4:00 AM CST on April 26, 2019
Observed at: Sheyang, China

View Station's History

Local Satellite

Current Satellite Forecast
Region Default Local
No Yes

View Full Screen WunderMap

Forecast

Current Satellite Forecast

Features

Weather Apps

WunderRadio

Weather Underground Apps
Check out our wide variety of mobile and setup applications.

Weather Underground Applications

Top of Page

© Copyright 2019
The Weather Company, LLC